Time;durP1;ratioP1;P1;durP2;ratioP2;P2;SDS_P1;SDS_P2;PMS_P1;PMS_P2;Temp;Humidity;BMP_temperature;BMP_pressure;BME280_temperature;BME280_humidity;BME280_pressure;Samples;Min_cycle;Max_cycle;Signal;HPM_P1;HPM_P2
2023/01/27 00:01:26;;;;;;;9.43;3.50;;;23.40;39.70;;;;;;5049909;28;20634;-66
2023/01/27 00:03:53;;;;;;;9.90;3.57;;;23.40;39.70;;;;;;5067084;28;20692;-64
2023/01/27 00:06:20;;;;;;;11.87;3.93;;;23.40;39.70;;;;;;5067810;28;20209;-64
2023/01/27 00:08:46;;;;;;;8.50;3.43;;;23.40;39.70;;;;;;5070113;28;20188;-63
2023/01/27 00:13:58;;;;;;;12.93;4.70;;;23.40;39.70;;;;;;5066783;28;20210;-73
2023/01/27 00:16:26;;;;;;;9.33;3.83;;;23.40;39.70;;;;;;5067057;28;20219;-80
2023/01/27 00:18:53;;;;;;;12.03;4.60;;;23.40;39.70;;;;;;5067644;28;20879;-72
2023/01/27 00:26:49;;;;;;;15.63;4.93;;;23.40;39.70;;;;;;5063756;28;20291;-78
2023/01/27 00:29:16;;;;;;;11.07;3.97;;;23.40;39.80;;;;;;5067166;28;20218;-85
2023/01/27 00:34:28;;;;;;;10.43;3.60;;;23.40;39.80;;;;;;5067203;28;20214;-86
2023/01/27 00:36:55;;;;;;;9.13;3.33;;;23.30;39.70;;;;;;5068648;28;20267;-80
2023/01/27 00:39:22;;;;;;;8.67;3.27;;;23.40;39.90;;;;;;5069629;28;20269;-82
2023/01/27 00:41:49;;;;;;;11.90;4.13;;;23.30;39.80;;;;;;5067281;28;20213;-66
2023/01/27 00:44:16;;;;;;;11.77;4.17;;;23.30;39.70;;;;;;5065848;28;20354;-65
2023/01/27 00:46:44;;;;;;;13.53;4.60;;;23.30;39.80;;;;;;5067151;28;20325;-74
2023/01/27 00:49:12;;;;;;;8.90;3.57;;;23.30;39.80;;;;;;5066559;28;20197;-65
2023/01/27 00:51:39;;;;;;;11.73;4.23;;;23.30;39.80;;;;;;5068145;28;20297;-69
2023/01/27 00:54:06;;;;;;;8.70;3.40;;;23.30;39.80;;;;;;5068695;28;20655;-64
2023/01/27 00:56:33;;;;;;;10.73;4.10;;;23.30;39.80;;;;;;5067211;28;20612;-64
2023/01/27 00:59:00;;;;;;;10.53;3.90;;;23.30;39.80;;;;;;5049464;28;20242;-64
2023/01/27 01:01:27;;;;;;;10.53;3.87;;;23.30;39.80;;;;;;5048717;28;20637;-64
2023/01/27 01:03:57;;;;;;;9.50;3.67;;;23.30;39.80;;;;;;5048659;28;20288;-64
2023/01/27 01:06:24;;;;;;;16.33;5.67;;;23.30;40.40;;;;;;5049484;28;20633;-65
2023/01/27 01:08:51;;;;;;;8.17;3.30;;;23.30;39.90;;;;;;5064322;28;20213;-79
2023/01/27 01:11:20;;;;;;;6.80;3.03;;;23.30;39.90;;;;;;5068746;28;20213;-77
2023/01/27 01:13:48;;;;;;;8.43;3.47;;;23.30;39.80;;;;;;5069038;28;20191;-81
2023/01/27 01:16:17;;;;;;;11.00;3.77;;;23.30;40.50;;;;;;5067624;28;20196;-69
2023/01/27 01:18:44;;;;;;;9.00;3.60;;;23.30;39.90;;;;;;5067850;28;20672;-70
2023/01/27 01:21:14;;;;;;;16.07;5.43;;;23.30;39.80;;;;;;5065371;28;20217;-75
2023/01/27 01:23:42;;;;;;;11.00;4.30;;;23.30;39.90;;;;;;5063461;28;20209;-65
2023/01/27 01:26:10;;;;;;;10.47;3.90;;;23.30;39.90;;;;;;5067498;28;20204;-63
2023/01/27 01:28:37;;;;;;;15.80;5.47;;;23.30;39.90;;;;;;5065754;28;20214;-65
2023/01/27 01:31:05;;;;;;;23.33;7.47;;;23.30;39.90;;;;;;5062534;28;20734;-82
2023/01/27 01:33:32;;;;;;;10.47;3.70;;;23.30;39.90;;;;;;5059557;28;20294;-85
2023/01/27 01:36:04;;;;;;;9.73;3.03;;;23.30;39.90;;;;;;5067804;28;20218;-76
2023/01/27 01:38:32;;;;;;;11.77;3.87;;;23.30;39.90;;;;;;5065315;28;20203;-81
2023/01/27 01:40:59;;;;;;;7.73;3.17;;;23.30;39.90;;;;;;5064691;28;20727;-81
2023/01/27 01:43:26;;;;;;;9.47;3.47;;;23.30;40.00;;;;;;5065346;28;20195;-81
2023/01/27 01:45:55;;;;;;;10.80;3.80;;;23.30;39.90;;;;;;5065071;28;20217;-67
2023/01/27 01:48:27;;;;;;;9.13;3.43;;;23.30;39.90;;;;;;5066868;28;20651;-84
2023/01/27 01:50:58;;;;;;;13.17;4.27;;;23.30;39.90;;;;;;5053619;28;20200;-83
2023/01/27 01:53:32;;;;;;;10.17;3.73;;;23.30;40.00;;;;;;5068164;28;20188;-83
2023/01/27 01:56:08;;;;;;;7.63;3.27;;;23.30;39.90;;;;;;5067269;28;20203;-83
2023/01/27 01:58:35;;;;;;;8.53;3.13;;;23.30;39.90;;;;;;5061140;28;20227;-73
2023/01/27 02:01:05;;;;;;;8.57;3.17;;;23.30;39.90;;;;;;5048464;28;20204;-73
2023/01/27 02:03:33;;;;;;;6.77;2.93;;;23.30;40.00;;;;;;5048209;28;20726;-64
2023/01/27 02:06:01;;;;;;;11.63;4.10;;;23.30;40.00;;;;;;5051773;28;20670;-74
2023/01/27 02:08:30;;;;;;;13.10;4.40;;;23.30;39.90;;;;;;5047233;28;20290;-68
2023/01/27 02:10:58;;;;;;;7.67;3.07;;;23.30;40.60;;;;;;5048458;28;20194;-83
2023/01/27 02:13:26;;;;;;;8.07;3.10;;;23.30;40.60;;;;;;5047939;28;20291;-82
2023/01/27 02:15:55;;;;;;;9.97;3.50;;;23.30;40.00;;;;;;5048552;28;20212;-85
2023/01/27 02:18:22;;;;;;;11.17;3.80;;;23.20;39.90;;;;;;5047823;28;20725;-85
2023/01/27 02:20:52;;;;;;;11.27;3.90;;;23.30;40.00;;;;;;5057371;28;20211;-85
2023/01/27 02:23:31;;;;;;;10.63;4.00;;;23.30;40.00;;;;;;5066810;28;20230;-83
2023/01/27 02:26:03;;;;;;;9.30;3.50;;;23.30;40.00;;;;;;5066299;28;20230;-84
2023/01/27 02:28:31;;;;;;;8.73;3.43;;;23.30;40.00;;;;;;5061720;28;20670;-84
2023/01/27 02:30:58;;;;;;;13.77;4.83;;;23.30;40.00;;;;;;5065772;28;20200;-84
2023/01/27 02:33:25;;;;;;;9.70;3.70;;;23.30;40.00;;;;;;5064956;28;20206;-84
2023/01/27 02:35:59;;;;;;;11.97;4.17;;;23.30;40.00;;;;;;5054066;28;20204;-84
2023/01/27 02:38:30;;;;;;;8.27;3.27;;;23.30;40.00;;;;;;5047482;28;20227;-78
2023/01/27 02:41:04;;;;;;;7.57;2.77;;;23.30;40.00;;;;;;5051940;28;20191;-64
2023/01/27 02:43:31;;;;;;;13.87;4.83;;;23.30;40.00;;;;;;5064546;28;20660;-66
2023/01/27 02:45:58;;;;;;;10.30;3.70;;;23.30;40.00;;;;;;5055238;28;20196;-74
2023/01/27 02:48:25;;;;;;;7.93;3.13;;;23.30;40.00;;;;;;5069756;28;20207;-66
2023/01/27 02:50:52;;;;;;;8.33;3.13;;;23.30;40.00;;;;;;5055501;28;20205;-64
2023/01/27 02:53:19;;;;;;;7.80;3.17;;;23.30;40.00;;;;;;5052303;28;20654;-68
2023/01/27 02:55:45;;;;;;;7.93;3.13;;;23.30;40.00;;;;;;5070663;28;20338;-66
2023/01/27 02:58:15;;;;;;;11.50;4.20;;;23.30;40.00;;;;;;5070497;28;20772;-64
2023/01/27 03:00:42;;;;;;;6.87;2.90;;;23.30;40.00;;;;;;5071104;28;20211;-65
2023/01/27 03:03:09;;;;;;;9.17;3.57;;;23.30;40.00;;;;;;5071146;28;20202;-63
2023/01/27 03:05:36;;;;;;;9.10;3.47;;;23.30;40.00;;;;;;5070387;28;20905;-64
2023/01/27 03:08:03;;;;;;;9.70;3.37;;;23.30;40.10;;;;;;5070508;28;20615;-64
2023/01/27 03:10:30;;;;;;;8.50;3.30;;;23.30;40.00;;;;;;5070695;28;20777;-64
2023/01/27 03:12:57;;;;;;;7.03;3.10;;;23.30;40.00;;;;;;5070744;28;20204;-64
2023/01/27 03:18:12;;;;;;;8.43;3.43;;;23.30;40.00;;;;;;5066983;28;20247;-66
2023/01/27 03:20:39;;;;;;;14.20;4.67;;;23.30;40.00;;;;;;5057634;28;20238;-68
2023/01/27 03:23:07;;;;;;;10.37;4.00;;;23.30;40.60;;;;;;5069235;28;20273;-65
2023/01/27 03:25:34;;;;;;;8.23;3.47;;;23.40;40.10;;;;;;5070695;28;20279;-65
2023/01/27 03:28:02;;;;;;;12.43;4.50;;;23.40;40.10;;;;;;5069570;28;20203;-64
2023/01/27 03:30:30;;;;;;;8.93;3.50;;;23.30;40.00;;;;;;5067822;28;20892;-65
2023/01/27 03:32:57;;;;;;;8.07;3.23;;;23.40;40.10;;;;;;5057294;28;20566;-65
2023/01/27 03:35:33;;;;;;;12.53;4.33;;;23.40;40.00;;;;;;5065587;28;20299;-71
2023/01/27 03:46:18;;;;;;;13.33;4.23;;;23.40;40.00;;;;;;5065103;28;20237;-74
2023/01/27 03:48:49;;;;;;;8.97;3.13;;;23.40;40.00;;;;;;5068622;28;20835;-64
2023/01/27 03:51:17;;;;;;;8.53;3.03;;;23.40;40.00;;;;;;5068331;28;20199;-64
2023/01/27 03:53:44;;;;;;;15.70;5.30;;;23.40;40.00;;;;;;5067003;28;20199;-64
2023/01/27 03:56:11;;;;;;;14.10;4.77;;;23.40;40.00;;;;;;5068081;28;20196;-71
2023/01/27 03:58:39;;;;;;;8.10;2.80;;;23.40;40.00;;;;;;5067392;28;20648;-67
2023/01/27 04:01:07;;;;;;;10.50;3.77;;;23.40;40.00;;;;;;5062070;28;20279;-69
2023/01/27 04:09:08;;;;;;;9.60;3.20;;;23.40;40.00;;;;;;5069089;28;20243;-65
2023/01/27 04:14:20;;;;;;;9.50;3.23;;;23.30;40.00;;;;;;5067363;28;20295;-73
2023/01/27 04:16:47;;;;;;;11.37;4.20;;;23.30;40.00;;;;;;5064321;28;20221;-64
2023/01/27 04:19:15;;;;;;;9.03;3.40;;;23.30;40.00;;;;;;5055348;28;20227;-68
2023/01/27 04:21:42;;;;;;;13.13;4.60;;;23.40;40.10;;;;;;5063268;28;20242;-67
2023/01/27 04:24:16;;;;;;;10.50;3.70;;;23.30;40.00;;;;;;5064753;28;20295;-67
2023/01/27 04:26:44;;;;;;;14.20;4.93;;;23.30;40.10;;;;;;5067463;28;20200;-67
2023/01/27 04:29:12;;;;;;;8.03;3.10;;;23.30;40.00;;;;;;5067060;28;20203;-67
2023/01/27 04:31:39;;;;;;;15.87;5.17;;;23.30;40.00;;;;;;5067783;28;20579;-64
2023/01/27 04:34:07;;;;;;;8.50;3.07;;;23.30;40.00;;;;;;5067725;28;20567;-66
2023/01/27 04:36:35;;;;;;;6.37;2.70;;;23.30;40.00;;;;;;5068266;28;20733;-64
2023/01/27 04:39:02;;;;;;;8.13;3.07;;;23.30;40.00;;;;;;5056973;28;20216;-64
2023/01/27 04:41:29;;;;;;;8.07;3.13;;;23.30;40.00;;;;;;5052099;28;20195;-75
2023/01/27 04:43:56;;;;;;;8.67;3.17;;;23.30;40.10;;;;;;5058053;28;20679;-74
2023/01/27 04:46:23;;;;;;;10.50;3.60;;;23.30;40.10;;;;;;5056126;28;20555;-75
2023/01/27 04:48:50;;;;;;;9.83;3.57;;;23.30;40.10;;;;;;5068480;28;20290;-65
2023/01/27 04:51:17;;;;;;;9.13;3.33;;;23.30;40.00;;;;;;5068869;28;20200;-65
2023/01/27 04:53:45;;;;;;;8.17;3.33;;;23.30;40.10;;;;;;5069508;28;20190;-64
2023/01/27 04:56:24;;;;;;;8.97;3.37;;;23.30;40.00;;;;;;5069202;28;20194;-68
2023/01/27 04:58:52;;;;;;;9.83;3.67;;;23.30;40.00;;;;;;5068822;28;20244;-64
2023/01/27 05:01:19;;;;;;;7.47;2.90;;;23.30;40.00;;;;;;5067989;28;20202;-64
2023/01/27 05:03:46;;;;;;;10.73;3.60;;;23.30;40.00;;;;;;5068736;28;20202;-69
2023/01/27 05:06:13;;;;;;;9.47;3.37;;;23.30;40.00;;;;;;5055689;28;20289;-65
2023/01/27 05:08:40;;;;;;;8.67;3.30;;;23.30;40.10;;;;;;5048655;28;20294;-66
2023/01/27 05:11:09;;;;;;;7.73;3.10;;;23.30;40.00;;;;;;5053205;28;20190;-65
2023/01/27 05:13:36;;;;;;;8.67;3.40;;;23.30;40.00;;;;;;5067460;28;20626;-67
2023/01/27 05:16:08;;;;;;;10.70;3.63;;;23.30;40.00;;;;;;5066045;28;20200;-64
2023/01/27 05:18:35;;;;;;;10.60;4.00;;;23.30;40.00;;;;;;5066694;28;20251;-64
2023/01/27 05:21:03;;;;;;;9.70;3.77;;;23.30;40.00;;;;;;5066685;28;20699;-75
2023/01/27 05:23:36;;;;;;;8.37;3.40;;;23.30;40.00;;;;;;5066328;28;20656;-74
2023/01/27 05:26:06;;;;;;;10.40;3.53;;;23.30;40.10;;;;;;5063282;28;20742;-70
2023/01/27 05:28:34;;;;;;;10.17;3.73;;;23.30;40.00;;;;;;5059923;28;20200;-75
2023/01/27 05:31:03;;;;;;;7.93;3.07;;;23.30;40.00;;;;;;5067509;28;20217;-70
2023/01/27 05:33:30;;;;;;;20.63;6.53;;;23.30;40.70;;;;;;5065641;28;20219;-68
2023/01/27 05:36:01;;;;;;;11.93;3.57;;;23.20;40.00;;;;;;5066205;28;20214;-65
2023/01/27 05:38:29;;;;;;;7.73;3.13;;;23.20;40.00;;;;;;5067904;28;20277;-65
2023/01/27 05:40:57;;;;;;;9.33;3.50;;;23.20;40.00;;;;;;5048992;28;20211;-65
2023/01/27 05:43:25;;;;;;;8.03;3.20;;;23.10;40.10;;;;;;5054353;28;20203;-70
2023/01/27 05:45:53;;;;;;;10.27;3.73;;;23.20;40.20;;;;;;5047658;28;20199;-64
2023/01/27 05:48:20;;;;;;;8.23;3.00;;;23.10;40.20;;;;;;5047616;28;20215;-64
2023/01/27 05:50:57;;;;;;;9.17;3.10;;;23.10;40.20;;;;;;5047442;28;20323;-73
2023/01/27 05:53:24;;;;;;;10.67;4.13;;;23.10;40.30;;;;;;5047469;28;20701;-71
2023/01/27 05:55:52;;;;;;;13.70;4.47;;;23.10;40.20;;;;;;5048912;28;20208;-66
2023/01/27 05:58:19;;;;;;;15.83;5.30;;;23.10;40.20;;;;;;5066191;28;20600;-64
2023/01/27 06:00:46;;;;;;;10.00;3.87;;;23.10;40.20;;;;;;5062086;28;20917;-66
2023/01/27 06:03:15;;;;;;;9.37;3.37;;;23.10;40.20;;;;;;5062687;28;20196;-65
2023/01/27 06:05:50;;;;;;;7.80;3.20;;;23.10;40.20;;;;;;5055641;28;20208;-65
2023/01/27 06:08:17;;;;;;;7.93;3.10;;;23.10;40.30;;;;;;5067287;28;20696;-65
2023/01/27 06:10:44;;;;;;;9.37;3.30;;;23.10;40.20;;;;;;5067644;28;20192;-64
2023/01/27 06:13:11;;;;;;;12.10;3.67;;;23.10;40.20;;;;;;5066444;28;20206;-66
2023/01/27 06:15:41;;;;;;;9.10;3.53;;;23.10;40.20;;;;;;5064746;28;20207;-66
2023/01/27 06:18:08;;;;;;;9.73;3.07;;;23.10;40.20;;;;;;5064682;28;20226;-70
2023/01/27 06:20:36;;;;;;;10.90;3.63;;;23.10;40.30;;;;;;5070086;28;20229;-65
2023/01/27 06:23:04;;;;;;;8.13;3.57;;;23.10;40.20;;;;;;5071492;28;20665;-75
2023/01/27 06:25:31;;;;;;;8.73;3.50;;;23.10;40.20;;;;;;5070002;28;20671;-69
2023/01/27 06:27:58;;;;;;;9.60;3.43;;;23.20;40.30;;;;;;5068579;28;20206;-79
2023/01/27 06:30:25;;;;;;;9.10;3.33;;;23.10;40.20;;;;;;5070853;28;20203;-78
2023/01/27 06:32:52;;;;;;;9.37;3.70;;;23.10;40.20;;;;;;5070925;28;20207;-71
2023/01/27 06:35:19;;;;;;;9.53;3.63;;;23.20;40.30;;;;;;5068875;28;20292;-71
2023/01/27 06:37:48;;;;;;;8.20;3.23;;;23.20;40.30;;;;;;5069875;28;20390;-65
2023/01/27 06:40:16;;;;;;;9.83;3.53;;;23.20;40.40;;;;;;5069784;28;20287;-70
2023/01/27 06:42:43;;;;;;;10.43;3.47;;;23.20;40.30;;;;;;5068613;28;20202;-81
2023/01/27 06:45:11;;;;;;;10.10;3.80;;;23.20;40.30;;;;;;5069395;28;20658;-66
2023/01/27 06:47:39;;;;;;;7.77;3.13;;;23.20;40.20;;;;;;5064046;28;20237;-65
2023/01/27 06:50:06;;;;;;;9.43;3.57;;;23.20;40.90;;;;;;5050213;28;20670;-64
2023/01/27 06:52:33;;;;;;;13.83;4.93;;;23.20;40.20;;;;;;5058724;28;20199;-64
2023/01/27 06:55:02;;;;;;;10.13;3.80;;;23.20;40.20;;;;;;5070489;28;20624;-64
2023/01/27 06:57:29;;;;;;;9.80;3.90;;;23.20;40.20;;;;;;5061512;28;20196;-64
2023/01/27 06:59:56;;;;;;;8.53;3.20;;;23.20;40.70;;;;;;5065077;28;20222;-65
2023/01/27 07:02:23;;;;;;;8.73;3.50;;;23.20;40.20;;;;;;5068938;28;20967;-65
2023/01/27 07:04:50;;;;;;;7.13;3.07;;;23.30;40.30;;;;;;5069633;28;20217;-64
2023/01/27 07:07:16;;;;;;;7.47;3.37;;;23.30;40.20;;;;;;5064973;28;20738;-72
2023/01/27 07:09:43;;;;;;;8.57;3.73;;;23.20;40.10;;;;;;5050725;28;20196;-67
2023/01/27 07:12:11;;;;;;;11.60;4.57;;;23.30;40.20;;;;;;5053825;28;20572;-68
2023/01/27 07:14:38;;;;;;;7.47;3.27;;;23.30;40.10;;;;;;5070375;28;20208;-64
2023/01/27 07:17:05;;;;;;;8.77;3.53;;;23.30;40.10;;;;;;5071003;28;20191;-64
2023/01/27 07:19:32;;;;;;;9.33;3.93;;;23.30;40.20;;;;;;5066431;28;20721;-68
2023/01/27 07:21:59;;;;;;;8.20;3.47;;;23.30;40.20;;;;;;5069543;28;20302;-70
2023/01/27 07:24:26;;;;;;;8.43;3.73;;;23.30;40.40;;;;;;5066334;28;20231;-67
2023/01/27 07:26:53;;;;;;;17.07;5.30;;;23.30;40.40;;;;;;5069423;28;20204;-67
2023/01/27 07:29:21;;;;;;;17.37;5.90;;;23.30;40.70;;;;;;5063069;28;20314;-65
2023/01/27 07:31:48;;;;;;;19.40;5.50;;;23.30;40.90;;;;;;5069813;28;20432;-66
2023/01/27 07:34:15;;;;;;;11.40;4.63;;;23.30;41.40;;;;;;5070190;28;20211;-65
2023/01/27 07:36:42;;;;;;;18.90;6.63;;;23.30;41.20;;;;;;5067017;28;20287;-65
2023/01/27 07:39:09;;;;;;;19.27;4.33;;;23.30;41.00;;;;;;5067519;28;20303;-65
2023/01/27 07:41:36;;;;;;;13.13;4.20;;;23.40;41.00;;;;;;5067972;28;20233;-66
2023/01/27 07:44:03;;;;;;;9.23;3.70;;;23.40;40.90;;;;;;5069848;28;20207;-66
2023/01/27 07:46:31;;;;;;;7.93;3.50;;;23.40;40.90;;;;;;5069836;28;20286;-67
2023/01/27 07:48:58;;;;;;;9.33;3.63;;;23.40;40.90;;;;;;5069077;28;20619;-62
2023/01/27 07:51:25;;;;;;;10.93;4.43;;;23.50;40.90;;;;;;5060363;28;20229;-65
2023/01/27 07:53:52;;;;;;;13.83;3.73;;;23.50;41.00;;;;;;5068915;28;20209;-64
2023/01/27 07:56:19;;;;;;;17.93;5.90;;;23.50;40.90;;;;;;5063076;28;20209;-64
2023/01/27 07:58:45;;;;;;;8.70;3.70;;;23.50;41.00;;;;;;5066093;28;20231;-64
2023/01/27 08:01:13;;;;;;;13.03;4.20;;;23.50;41.00;;;;;;5069173;28;20310;-68
2023/01/27 08:03:41;;;;;;;12.10;3.93;;;23.50;40.90;;;;;;5068592;28;20199;-72
2023/01/27 08:06:10;;;;;;;16.07;5.43;;;23.50;40.90;;;;;;5067874;28;20287;-70
2023/01/27 08:08:37;;;;;;;17.90;5.93;;;23.60;41.00;;;;;;5064221;28;20245;-69
2023/01/27 08:11:06;;;;;;;13.57;4.50;;;23.60;40.90;;;;;;5065115;28;20205;-67
2023/01/27 08:13:34;;;;;;;8.40;3.63;;;23.60;40.90;;;;;;5069234;28;20252;-66
2023/01/27 08:16:04;;;;;;;13.83;5.10;;;23.50;40.70;;;;;;5068378;28;20208;-69
2023/01/27 08:18:32;;;;;;;10.10;4.13;;;23.60;40.60;;;;;;5069492;28;20219;-68
2023/01/27 08:21:01;;;;;;;8.07;3.40;;;23.50;40.40;;;;;;5068973;28;20219;-66
2023/01/27 08:23:29;;;;;;;10.87;4.20;;;23.50;40.20;;;;;;5069167;28;20203;-67
2023/01/27 08:25:57;;;;;;;9.87;3.60;;;23.60;40.30;;;;;;5069638;28;20192;-66
2023/01/27 08:28:25;;;;;;;13.07;4.90;;;23.50;40.20;;;;;;5062659;28;20204;-66
2023/01/27 08:30:52;;;;;;;7.73;3.57;;;23.50;40.20;;;;;;5068568;28;20203;-82
2023/01/27 08:33:20;;;;;;;11.23;4.40;;;23.50;40.20;;;;;;5069230;28;20206;-73
2023/01/27 08:35:48;;;;;;;7.23;3.20;;;23.50;40.20;;;;;;5068745;28;20209;-80
2023/01/27 08:38:18;;;;;;;9.70;4.13;;;23.50;40.20;;;;;;5069366;28;20209;-83
2023/01/27 08:40:46;;;;;;;9.87;3.90;;;23.50;40.20;;;;;;5068455;28;20233;-66
2023/01/27 08:43:16;;;;;;;8.27;3.50;;;23.50;40.20;;;;;;5068073;28;20211;-66
2023/01/27 08:45:45;;;;;;;9.07;3.73;;;23.40;40.10;;;;;;5064389;28;20270;-66
2023/01/27 08:48:12;;;;;;;9.60;4.17;;;23.50;40.20;;;;;;5066450;28;20195;-66
2023/01/27 08:50:39;;;;;;;8.33;3.30;;;23.50;40.20;;;;;;5068420;28;20321;-66
2023/01/27 08:53:06;;;;;;;8.17;3.10;;;23.40;40.10;;;;;;5068689;28;20290;-66
2023/01/27 08:55:35;;;;;;;7.77;3.07;;;23.40;40.10;;;;;;5068219;28;20738;-66
2023/01/27 08:58:02;;;;;;;10.57;3.87;;;23.40;40.10;;;;;;5068321;28;20277;-69
2023/01/27 09:00:29;;;;;;;8.97;3.97;;;23.40;40.10;;;;;;5068424;28;20307;-66
2023/01/27 09:02:56;;;;;;;8.37;3.47;;;23.40;40.20;;;;;;5065593;28;20272;-70
2023/01/27 09:05:23;;;;;;;8.90;3.93;;;23.40;40.20;;;;;;5068534;28;20210;-76
2023/01/27 09:07:50;;;;;;;9.93;3.43;;;23.40;40.10;;;;;;5068594;28;20289;-71
2023/01/27 09:10:17;;;;;;;8.63;3.57;;;23.30;40.10;;;;;;5068240;28;20314;-83
2023/01/27 09:12:45;;;;;;;8.23;3.57;;;23.30;40.00;;;;;;5068415;28;20191;-82
2023/01/27 09:15:13;;;;;;;9.03;3.63;;;23.30;40.00;;;;;;5068239;28;20701;-82
2023/01/27 09:17:40;;;;;;;10.33;3.87;;;23.30;40.00;;;;;;5065894;28;20732;-80
2023/01/27 09:20:08;;;;;;;8.27;3.20;;;23.30;40.00;;;;;;5068184;28;20310;-78
2023/01/27 09:22:36;;;;;;;9.00;3.70;;;23.30;40.00;;;;;;5068486;28;20792;-83
2023/01/27 09:25:03;;;;;;;7.20;3.30;;;23.30;40.00;;;;;;5065751;28;20647;-70
2023/01/27 09:27:30;;;;;;;8.17;3.47;;;23.30;40.00;;;;;;5068116;28;20207;-67
2023/01/27 09:29:58;;;;;;;8.20;3.40;;;23.30;40.00;;;;;;5068019;28;20210;-77
2023/01/27 09:32:25;;;;;;;7.97;3.23;;;23.30;40.00;;;;;;5068230;28;20200;-67
2023/01/27 09:34:52;;;;;;;9.57;3.90;;;23.30;40.00;;;;;;5068417;28;20214;-68
2023/01/27 09:37:19;;;;;;;8.60;3.57;;;23.30;40.00;;;;;;5068255;28;20233;-67
2023/01/27 09:39:49;;;;;;;9.20;3.80;;;23.30;40.00;;;;;;5065461;28;20223;-72
2023/01/27 09:42:38;;;;;;;8.60;3.47;;;23.30;40.00;;;;;;5064777;28;20770;-68
2023/01/27 09:45:40;;;;;;;7.97;3.67;;;23.30;39.90;;;;;;5067969;28;20574;-66
2023/01/27 09:48:21;;;;;;;9.60;3.67;;;23.40;39.90;;;;;;5067593;28;20218;-67
2023/01/27 09:50:55;;;;;;;7.80;3.17;;;23.40;39.90;;;;;;5067842;28;20293;-69
2023/01/27 09:54:01;;;;;;;7.73;3.30;;;23.40;39.90;;;;;;5067465;28;20209;-66
2023/01/27 09:56:38;;;;;;;8.37;3.30;;;23.30;39.70;;;;;;5066970;28;20205;-65
2023/01/27 09:59:22;;;;;;;9.00;3.33;;;23.40;39.90;;;;;;5065066;28;20238;-67
2023/01/27 10:01:59;;;;;;;9.57;3.60;;;23.40;39.80;;;;;;5067556;28;20187;-66
2023/01/27 10:04:45;;;;;;;8.10;3.43;;;23.40;39.80;;;;;;5067290;28;20209;-67
2023/01/27 10:07:33;;;;;;;9.73;3.80;;;23.40;39.80;;;;;;5067228;28;20624;-65
2023/01/27 10:10:15;;;;;;;8.70;3.40;;;23.40;39.70;;;;;;5066760;28;20212;-67
2023/01/27 10:12:59;;;;;;;7.93;3.37;;;23.50;39.80;;;;;;5057322;28;20722;-67
2023/01/27 10:15:40;;;;;;;7.50;3.13;;;23.50;39.70;;;;;;5066990;28;20200;-72
2023/01/27 10:18:25;;;;;;;18.67;6.10;;;23.50;39.70;;;;;;5065182;28;20659;-66
2023/01/27 10:21:02;;;;;;;8.63;3.37;;;23.50;39.70;;;;;;5065855;28;20233;-68
2023/01/27 10:23:38;;;;;;;8.03;2.93;;;23.50;39.70;;;;;;5067000;28;20667;-69
2023/01/27 10:26:17;;;;;;;7.17;3.20;;;23.60;39.80;;;;;;5067041;28;20211;-66
2023/01/27 10:28:49;;;;;;;8.30;3.50;;;23.60;39.80;;;;;;5066041;28;20294;-73
2023/01/27 10:31:22;;;;;;;6.87;2.90;;;23.70;40.50;;;;;;5067125;28;20204;-70
2023/01/27 10:33:53;;;;;;;8.37;3.17;;;23.80;40.00;;;;;;5066859;28;20204;-69
2023/01/27 10:36:27;;;;;;;8.33;3.43;;;23.80;39.80;;;;;;5066896;28;20223;-78
2023/01/27 10:39:03;;;;;;;9.23;3.73;;;23.90;39.90;;;;;;5066726;28;20223;-81
2023/01/27 10:41:39;;;;;;;8.37;3.13;;;24.00;40.50;;;;;;5066939;28;20203;-76
2023/01/27 10:44:32;;;;;;;7.80;3.20;;;24.10;39.90;;;;;;5065519;28;20203;-71
2023/01/27 10:47:09;;;;;;;6.77;3.07;;;24.20;40.50;;;;;;5066807;28;20214;-75
2023/01/27 10:49:40;;;;;;;6.70;3.10;;;24.30;39.80;;;;;;5066503;28;20212;-82
2023/01/27 10:52:13;;;;;;;8.53;3.27;;;24.40;39.80;;;;;;5049754;28;20236;-79
2023/01/27 10:54:47;;;;;;;6.87;3.20;;;24.60;39.70;;;;;;5047052;28;20295;-84
2023/01/27 10:57:19;;;;;;;7.63;3.20;;;24.70;39.60;;;;;;5046958;28;20258;-81
2023/01/27 10:59:53;;;;;;;7.07;3.10;;;24.80;39.60;;;;;;5057690;28;20219;-74
2023/01/27 11:02:25;;;;;;;6.53;2.67;;;24.90;39.50;;;;;;5065498;28;20191;-74
2023/01/27 11:04:58;;;;;;;12.03;4.57;;;25.00;39.40;;;;;;5067502;28;20200;-80
2023/01/27 11:07:26;;;;;;;6.57;2.97;;;25.10;39.10;;;;;;5070995;28;20278;-80
2023/01/27 11:09:56;;;;;;;7.23;3.13;;;25.10;39.10;;;;;;5070530;28;20206;-72
2023/01/27 11:12:30;;;;;;;11.03;4.43;;;25.20;39.20;;;;;;5066645;28;20199;-76
2023/01/27 11:14:59;;;;;;;6.20;2.87;;;25.30;39.20;;;;;;5067489;28;20196;-80
2023/01/27 11:17:31;;;;;;;6.83;3.03;;;25.30;39.30;;;;;;5070645;28;20192;-72
2023/01/27 11:20:11;;;;;;;8.33;3.20;;;25.40;39.20;;;;;;5070070;28;20234;-70
2023/01/27 11:22:53;;;;;;;7.00;2.97;;;25.40;39.00;;;;;;5070169;28;20229;-77
2023/01/27 11:25:26;;;;;;;7.33;3.07;;;25.50;38.90;;;;;;5070021;28;20192;-82
2023/01/27 11:28:17;;;;;;;7.27;3.20;;;25.60;38.90;;;;;;5070340;28;20196;-80
2023/01/27 11:30:51;;;;;;;7.67;3.30;;;25.70;38.70;;;;;;5064750;28;20203;-69
2023/01/27 11:33:22;;;;;;;7.07;2.90;;;25.70;38.60;;;;;;5070024;28;20200;-78
2023/01/27 11:35:53;;;;;;;7.63;3.20;;;25.70;38.50;;;;;;5070045;28;20207;-76
2023/01/27 11:38:22;;;;;;;7.33;3.10;;;25.70;38.40;;;;;;5070334;28;20581;-76
2023/01/27 11:40:51;;;;;;;10.77;4.13;;;25.70;38.30;;;;;;5069000;28;20230;-84
2023/01/27 11:43:21;;;;;;;8.50;3.57;;;25.70;38.90;;;;;;5069839;28;20199;-81
2023/01/27 11:45:49;;;;;;;6.00;2.70;;;25.70;38.20;;;;;;5069580;28;20213;-77
2023/01/27 11:48:18;;;;;;;12.13;4.57;;;25.60;38.20;;;;;;5069779;28;20238;-69
2023/01/27 11:50:46;;;;;;;7.70;3.23;;;25.60;38.20;;;;;;5069797;28;20195;-81
2023/01/27 11:53:20;;;;;;;7.47;3.07;;;25.50;38.10;;;;;;5069541;28;20199;-83
2023/01/27 11:55:51;;;;;;;8.17;3.17;;;25.50;38.70;;;;;;5068443;28;21881;-83
2023/01/27 11:58:24;;;;;;;7.17;3.07;;;25.40;38.10;;;;;;5069574;28;20230;-84
2023/01/27 12:00:56;;;;;;;8.03;3.37;;;25.40;38.10;;;;;;5069831;28;20224;-73
2023/01/27 12:03:31;;;;;;;8.87;3.50;;;25.40;38.20;;;;;;5069392;28;20203;-76
2023/01/27 12:06:04;;;;;;;6.83;2.80;;;25.40;38.30;;;;;;5069408;28;20289;-68
2023/01/27 12:08:42;;;;;;;7.83;3.37;;;25.30;38.20;;;;;;5066723;28;20241;-69
2023/01/27 12:11:23;;;;;;;10.73;3.83;;;25.20;38.10;;;;;;5069584;28;20199;-69
2023/01/27 12:13:52;;;;;;;6.23;2.83;;;25.20;38.10;;;;;;5069663;28;20209;-79
2023/01/27 12:16:19;;;;;;;9.20;3.60;;;25.20;38.30;;;;;;5061882;28;20198;-74
2023/01/27 12:18:55;;;;;;;8.13;3.20;;;25.20;38.30;;;;;;5069117;28;20196;-73
2023/01/27 12:21:34;;;;;;;10.20;3.43;;;25.10;38.80;;;;;;5068761;28;20227;-67
2023/01/27 12:24:03;;;;;;;9.60;3.73;;;25.10;38.30;;;;;;5066269;28;20198;-83
2023/01/27 12:26:36;;;;;;;7.07;2.97;;;25.10;38.30;;;;;;5069263;28;20206;-75
2023/01/27 12:29:06;;;;;;;12.33;4.57;;;25.00;38.30;;;;;;5062613;28;20199;-66
2023/01/27 12:31:44;;;;;;;11.97;4.10;;;25.00;38.30;;;;;;5057921;28;20208;-74
2023/01/27 12:34:23;;;;;;;8.03;3.23;;;25.00;38.30;;;;;;5062770;28;20238;-65
2023/01/27 12:36:51;;;;;;;26.90;8.80;;;24.90;38.20;;;;;;5059650;28;20668;-76
2023/01/27 12:39:33;;;;;;;9.47;4.07;;;24.90;38.20;;;;;;5062428;28;20196;-77
2023/01/27 12:42:00;;;;;;;10.47;4.13;;;24.90;38.20;;;;;;5056670;28;20693;-78
2023/01/27 12:44:39;;;;;;;8.70;3.33;;;24.80;38.10;;;;;;5067453;28;20694;-76
2023/01/27 12:47:21;;;;;;;10.77;4.17;;;24.80;38.20;;;;;;5049616;28;20196;-81
2023/01/27 12:49:48;;;;;;;18.20;4.37;;;24.80;38.20;;;;;;5066084;28;20207;-83
2023/01/27 12:52:19;;;;;;;14.37;4.57;;;24.80;38.30;;;;;;5067071;28;20204;-68
2023/01/27 12:54:50;;;;;;;13.90;5.23;;;24.70;38.30;;;;;;5065907;28;20210;-68
2023/01/27 12:57:19;;;;;;;11.63;4.67;;;24.70;38.30;;;;;;5058929;28;20219;-70
2023/01/27 12:59:50;;;;;;;6.93;3.03;;;24.70;38.40;;;;;;5068542;28;20208;-74
2023/01/27 13:02:19;;;;;;;11.50;4.50;;;24.70;38.40;;;;;;5066393;28;20196;-69
2023/01/27 13:04:52;;;;;;;8.10;3.47;;;24.60;38.40;;;;;;5068438;28;20196;-68
2023/01/27 13:07:22;;;;;;;7.13;3.53;;;24.60;38.40;;;;;;5066890;28;20206;-71
2023/01/27 13:09:54;;;;;;;11.03;4.33;;;24.60;38.40;;;;;;5064380;28;20196;-73
2023/01/27 13:12:24;;;;;;;10.57;3.60;;;24.60;39.00;;;;;;5067046;28;20651;-74
2023/01/27 13:14:53;;;;;;;9.87;3.90;;;24.50;38.30;;;;;;5067921;28;20207;-80
2023/01/27 13:17:29;;;;;;;9.70;3.83;;;24.50;38.40;;;;;;5066881;28;20207;-78
2023/01/27 13:19:58;;;;;;;9.23;3.97;;;24.50;38.30;;;;;;5067735;28;20211;-75
2023/01/27 13:22:26;;;;;;;15.03;4.83;;;24.50;38.40;;;;;;5066631;28;20734;-66
2023/01/27 13:25:00;;;;;;;11.27;4.20;;;24.50;38.40;;;;;;5064798;28;20286;-77
2023/01/27 13:27:32;;;;;;;11.77;3.70;;;24.40;38.30;;;;;;5064953;28;20282;-78